createdAt,value
2019-02-12T00:01:30.350Z,251.00
2019-02-12T00:04:01.712Z,240.50
2019-02-12T00:06:34.153Z,246.25
2019-02-12T00:09:07.529Z,308.25
2019-02-12T00:11:39.123Z,284.75
2019-02-12T00:14:10.556Z,280.50
2019-02-12T00:16:42.263Z,275.75
2019-02-12T00:19:13.527Z,265.25
2019-02-12T00:21:45.215Z,272.50
2019-02-12T00:24:17.055Z,253.50
2019-02-12T00:26:48.623Z,258.25
2019-02-12T00:29:20.611Z,270.75
2019-02-12T00:31:52.093Z,254.50
2019-02-12T00:34:23.879Z,281.50
2019-02-12T00:36:55.446Z,284.00
2019-02-12T00:39:27.435Z,280.00
2019-02-12T00:41:58.916Z,273.25
2019-02-12T00:44:30.297Z,254.25
2019-02-12T00:47:01.809Z,281.50
2019-02-12T00:49:34.316Z,291.75
2019-02-12T00:52:05.735Z,267.25
2019-02-12T00:54:37.383Z,276.00
2019-02-12T00:57:08.786Z,281.25
2019-02-12T00:59:40.016Z,276.50
2019-02-12T01:02:11.344Z,278.25
2019-02-12T01:04:43.428Z,277.25
2019-02-12T01:07:15.255Z,297.50
2019-02-12T01:09:46.702Z,262.00
2019-02-12T01:12:18.502Z,290.25
2019-02-12T01:14:50.141Z,267.75
2019-02-12T01:17:21.565Z,282.00
2019-02-12T01:19:52.835Z,298.25
2019-02-12T01:22:24.581Z,264.25
2019-02-12T01:24:56.145Z,243.50
2019-02-12T01:27:27.562Z,285.75
2019-02-12T01:29:59.143Z,300.25
2019-02-12T01:32:30.998Z,306.50
2019-02-12T01:35:02.496Z,302.00
2019-02-12T01:37:34.068Z,284.50
2019-02-12T01:40:05.780Z,290.00
2019-02-12T01:42:39.154Z,242.00
2019-02-12T01:45:11.887Z,264.75
2019-02-12T01:47:42.888Z,282.25
2019-02-12T01:50:15.317Z,273.25
2019-02-12T01:52:45.130Z,260.00
2019-02-12T01:55:16.329Z,275.25
2019-02-12T01:57:47.888Z,288.25
2019-02-12T02:00:19.201Z,300.00
2019-02-12T02:02:50.488Z,252.00
2019-02-12T02:05:21.791Z,300.50
2019-02-12T02:07:53.551Z,302.25
2019-02-12T02:10:25.047Z,309.25
2019-02-12T02:12:56.665Z,300.75
2019-02-12T02:15:28.506Z,294.75
2019-02-12T02:18:00.289Z,285.25
2019-02-12T02:20:31.412Z,253.75
2019-02-12T02:23:02.522Z,296.50
2019-02-12T02:25:33.716Z,301.00
2019-02-12T02:28:04.934Z,304.50
2019-02-12T02:30:36.151Z,305.75
2019-02-12T02:33:07.367Z,302.25
2019-02-12T02:35:39.701Z,315.00
2019-02-12T02:38:11.830Z,314.50
2019-02-12T02:40:43.059Z,319.00
2019-02-12T02:43:14.545Z,355.25
2019-02-12T02:45:46.235Z,351.00
2019-02-12T02:48:18.091Z,350.25
2019-02-12T02:50:49.533Z,351.50
2019-02-12T02:53:20.642Z,362.25
2019-02-12T02:55:52.011Z,338.75
2019-02-12T02:58:23.269Z,324.50
2019-02-12T03:00:54.353Z,367.00
2019-02-12T03:03:25.836Z,360.75
2019-02-12T03:05:57.122Z,389.25
2019-02-12T03:08:28.398Z,389.00
2019-02-12T03:10:59.669Z,354.50
2019-02-12T03:13:30.737Z,333.75
2019-02-12T03:16:02.338Z,349.75
2019-02-12T03:18:33.831Z,325.00
2019-02-12T03:21:05.328Z,301.00
2019-02-12T03:23:36.820Z,327.25
2019-02-12T03:26:08.085Z,313.50
2019-02-12T03:28:39.192Z,299.25
2019-02-12T03:31:12.570Z,299.00
2019-02-12T03:33:43.699Z,345.25
2019-02-12T03:36:15.848Z,334.00
2019-02-12T03:38:47.291Z,333.00
2019-02-12T03:41:18.819Z,315.25
2019-02-12T03:43:50.298Z,312.25
2019-02-12T03:46:22.213Z,302.00
2019-02-12T03:48:53.703Z,309.00
2019-02-12T03:51:25.363Z,302.50
2019-02-12T03:53:56.717Z,306.50
2019-02-12T03:56:28.088Z,325.00
2019-02-12T03:58:59.181Z,333.50
2019-02-12T04:01:30.468Z,362.25
2019-02-12T04:04:01.920Z,312.00
2019-02-12T04:06:33.501Z,304.75
2019-02-12T04:09:05.976Z,292.50
2019-02-12T04:11:36.955Z,313.75
2019-02-12T04:14:08.740Z,301.25
2019-02-12T04:16:41.121Z,294.50
2019-02-12T04:19:12.247Z,291.25
2019-02-12T04:21:44.343Z,295.00
2019-02-12T04:24:15.936Z,277.00
2019-02-12T04:26:47.773Z,302.25
2019-02-12T04:29:20.075Z,306.25
2019-02-12T04:31:51.602Z,307.50
2019-02-12T04:34:22.982Z,298.75
2019-02-12T04:36:54.553Z,293.50
2019-02-12T04:39:26.199Z,270.00
2019-02-12T04:41:57.618Z,289.50
2019-02-12T04:44:29.008Z,278.50
2019-02-12T04:47:01.412Z,269.50
2019-02-12T04:49:32.778Z,235.25
2019-02-12T04:52:04.920Z,234.25
2019-02-12T04:54:36.345Z,251.00
2019-02-12T04:57:07.795Z,245.75
2019-02-12T04:59:39.617Z,207.00
2019-02-12T05:02:11.500Z,220.80
2019-02-12T05:04:43.398Z,233.40
2019-02-12T05:07:15.330Z,208.80
2019-02-12T05:09:48.628Z,206.80
2019-02-12T05:12:21.654Z,206.20
2019-02-12T05:14:53.044Z,218.25
2019-02-12T05:17:24.596Z,199.40
2019-02-12T05:19:56.458Z,198.75
2019-02-12T05:22:28.483Z,239.50
2019-02-12T05:24:59.857Z,247.00
2019-02-12T05:27:31.683Z,211.50
2019-02-12T05:30:03.180Z,238.25
2019-02-12T05:32:35.732Z,227.50
2019-02-12T05:35:08.206Z,242.00
2019-02-12T05:37:40.744Z,271.25
2019-02-12T05:40:16.030Z,258.75
2019-02-12T05:42:47.602Z,241.75
2019-02-12T05:45:18.997Z,226.00
2019-02-12T05:47:50.771Z,232.25
2019-02-12T05:50:22.521Z,240.50
2019-02-12T05:52:55.114Z,211.00
2019-02-12T05:55:27.090Z,227.80
2019-02-12T05:57:58.590Z,259.00
2019-02-12T06:00:31.571Z,216.50
2019-02-12T06:03:04.550Z,245.50
2019-02-12T06:05:35.959Z,228.75
2019-02-12T06:08:08.008Z,180.20
2019-02-12T06:10:40.180Z,200.75
2019-02-12T06:13:11.741Z,200.40
2019-02-12T06:15:43.392Z,177.60
2019-02-12T06:18:14.602Z,223.50
2019-02-12T06:20:46.681Z,230.25
2019-02-12T06:23:18.401Z,221.25
2019-02-12T06:25:50.083Z,184.50
2019-02-12T06:28:21.646Z,196.60
2019-02-12T06:30:53.939Z,189.40
2019-02-12T06:33:25.605Z,181.20
2019-02-12T06:35:57.290Z,182.60
2019-02-12T06:38:28.907Z,205.00
2019-02-12T06:41:01.716Z,212.00
2019-02-12T06:43:35.447Z,199.80
2019-02-12T06:46:07.158Z,200.40
2019-02-12T06:48:38.723Z,235.20
2019-02-12T06:51:10.207Z,220.80
2019-02-12T06:53:42.063Z,222.00
2019-02-12T06:56:13.799Z,232.00
2019-02-12T06:58:46.343Z,215.60
2019-02-12T07:01:17.525Z,226.50
2019-02-12T07:04:09.564Z,241.50
2019-02-12T07:07:30.402Z,220.75
2019-02-12T07:10:06.808Z,230.50
2019-02-12T07:13:13.138Z,230.75
2019-02-12T07:16:15.940Z,232.75
2019-02-12T07:19:15.322Z,235.75
2019-02-12T07:22:32.702Z,209.60
2019-02-12T07:25:45.600Z,215.40
2019-02-12T07:28:50.920Z,202.80
2019-02-12T07:32:02.588Z,210.80
2019-02-12T07:34:52.671Z,190.40
2019-02-12T07:38:16.910Z,217.80
2019-02-12T07:41:20.022Z,198.80
2019-02-12T07:44:31.142Z,185.00
2019-02-12T07:47:38.337Z,208.40
2019-02-12T07:51:01.174Z,196.00
2019-02-12T07:54:12.584Z,211.80
2019-02-12T07:57:36.778Z,232.75
2019-02-12T08:00:59.659Z,208.60
2019-02-12T08:04:17.635Z,200.40
2019-02-12T08:07:36.779Z,207.80
2019-02-12T08:10:54.326Z,187.60
2019-02-12T08:13:50.043Z,178.40
2019-02-12T08:16:38.458Z,176.40
2019-02-12T08:20:03.468Z,170.00
2019-02-12T08:23:10.167Z,163.20
2019-02-12T08:26:14.218Z,157.60
2019-02-12T08:29:26.216Z,201.00
2019-02-12T08:32:29.661Z,148.60
2019-02-12T08:35:59.301Z,135.00
2019-02-12T08:38:44.064Z,163.80
2019-02-12T08:41:39.832Z,160.80
2019-02-12T08:44:30.320Z,159.00
2019-02-12T08:47:58.212Z,144.80
2019-02-12T08:55:06.936Z,149.40
2019-02-12T08:58:26.549Z,150.40
2019-02-12T09:01:15.540Z,141.60
2019-02-12T09:04:26.591Z,137.00
2019-02-12T09:07:43.841Z,139.60
2019-02-12T09:10:42.455Z,146.40
2019-02-12T09:13:36.776Z,131.20
2019-02-12T09:16:58.783Z,131.20
2019-02-12T09:20:26.050Z,126.20
2019-02-12T09:24:00.162Z,144.40
2019-02-12T09:26:59.726Z,143.00
2019-02-12T09:29:51.834Z,145.40
2019-02-12T09:33:18.534Z,141.20
2019-02-12T09:36:42.039Z,131.80
2019-02-12T09:39:51.874Z,146.00
2019-02-12T09:42:59.476Z,142.80
2019-02-12T09:46:11.304Z,130.60
2019-02-12T09:49:02.928Z,144.40
2019-02-12T09:51:41.543Z,151.40
2019-02-12T09:54:38.280Z,143.00
2019-02-12T09:57:57.041Z,123.80
2019-02-12T10:01:01.936Z,141.40
2019-02-12T10:04:14.339Z,144.20
2019-02-12T10:07:26.470Z,147.80
2019-02-12T10:10:24.296Z,128.40
2019-02-12T10:13:31.887Z,145.60
2019-02-12T10:16:32.953Z,130.40
2019-02-12T10:19:22.355Z,124.00
2019-02-12T10:22:35.248Z,149.80
2019-02-12T10:25:20.056Z,131.40
2019-02-12T10:28:17.617Z,131.00
2019-02-12T10:31:28.345Z,142.40
2019-02-12T10:34:00.222Z,142.00
2019-02-12T10:36:31.527Z,126.20
2019-02-12T10:39:03.042Z,136.80
2019-02-12T10:41:36.214Z,143.40
2019-02-12T10:44:08.732Z,140.20
2019-02-12T10:46:40.326Z,125.60
2019-02-12T10:49:11.867Z,113.60
2019-02-12T10:51:43.075Z,131.40
2019-02-12T10:54:14.862Z,127.40
2019-02-12T10:56:46.160Z,117.60
2019-02-12T10:59:17.513Z,126.80
2019-02-12T11:01:49.166Z,129.00
2019-02-12T11:04:21.615Z,132.00
2019-02-12T11:06:55.528Z,129.60
2019-02-12T11:09:30.271Z,136.80
2019-02-12T11:12:01.553Z,127.80
2019-02-12T11:14:33.349Z,146.00
2019-02-12T11:17:04.663Z,139.20
2019-02-12T11:19:36.330Z,138.20
2019-02-12T11:22:08.329Z,146.80
2019-02-12T11:24:39.881Z,125.00
2019-02-12T11:27:11.196Z,147.40
2019-02-12T11:29:43.164Z,129.00
2019-02-12T11:32:14.646Z,145.60
2019-02-12T11:34:46.245Z,159.60
2019-02-12T11:37:17.501Z,150.20
2019-02-12T11:39:49.195Z,142.80
2019-02-12T11:42:20.420Z,154.40
2019-02-12T11:44:52.049Z,154.00
2019-02-12T11:47:23.474Z,153.00
2019-02-12T11:49:55.174Z,147.80
2019-02-12T11:52:26.682Z,144.60
2019-02-12T11:54:58.146Z,140.60
2019-02-12T11:57:29.553Z,136.60
2019-02-12T12:00:01.141Z,143.80
2019-02-12T12:02:41.804Z,155.00
2019-02-12T12:05:08.629Z,143.80
2019-02-12T12:07:40.676Z,149.60
2019-02-12T12:10:12.534Z,148.20
2019-02-12T12:12:44.075Z,144.00
2019-02-12T12:15:15.859Z,137.20
2019-02-12T12:17:47.683Z,130.00
2019-02-12T12:20:19.221Z,138.60
2019-02-12T12:22:50.924Z,140.40
2019-02-12T12:25:22.136Z,125.00
2019-02-12T12:27:53.597Z,144.80
2019-02-12T12:30:25.192Z,129.60
2019-02-12T12:32:57.349Z,133.40
2019-02-12T12:35:28.650Z,131.20
2019-02-12T12:38:00.546Z,132.40
2019-02-12T12:40:32.169Z,129.20
2019-02-12T12:43:03.884Z,144.20
2019-02-12T12:45:35.529Z,132.20
2019-02-12T12:48:07.346Z,140.40
2019-02-12T12:50:38.791Z,158.20
2019-02-12T12:53:10.288Z,151.20
2019-02-12T12:55:41.749Z,160.00
2019-02-12T12:58:13.197Z,143.20
2019-02-12T13:00:44.441Z,160.80
2019-02-12T13:03:16.024Z,160.40
2019-02-12T13:05:49.732Z,156.00
2019-02-12T13:08:21.232Z,151.80
2019-02-12T13:10:55.481Z,155.00
2019-02-12T13:13:28.549Z,151.60
2019-02-12T13:16:00.221Z,140.80
2019-02-12T13:18:32.360Z,165.00
2019-02-12T13:21:04.404Z,156.60
2019-02-12T13:23:35.937Z,168.80
2019-02-12T13:26:07.375Z,166.40
2019-02-12T13:28:38.696Z,172.00
2019-02-12T13:31:09.920Z,173.00
2019-02-12T13:33:41.420Z,180.20
2019-02-12T13:36:14.198Z,175.00
2019-02-12T13:38:45.979Z,185.40
2019-02-12T13:41:17.657Z,183.60
2019-02-12T13:43:48.963Z,197.20
2019-02-12T13:46:20.702Z,186.20
2019-02-12T13:48:52.226Z,189.20
2019-02-12T13:51:23.750Z,203.20
2019-02-12T13:53:55.825Z,200.40
2019-02-12T13:56:27.338Z,193.40
2019-02-12T13:58:58.813Z,249.00
2019-02-12T14:01:30.423Z,212.75
2019-02-12T14:04:03.667Z,212.75
2019-02-12T14:06:37.491Z,224.00
2019-02-12T14:09:15.810Z,216.50
2019-02-12T14:11:48.858Z,244.25
2019-02-12T14:14:24.168Z,240.75
2019-02-12T14:17:03.152Z,247.75
2019-02-12T14:19:34.671Z,284.25
2019-02-12T14:22:06.095Z,299.75
2019-02-12T14:24:38.751Z,254.00
2019-02-12T14:27:10.211Z,300.25
2019-02-12T14:29:42.032Z,255.50
2019-02-12T14:32:13.176Z,253.75
2019-02-12T14:34:45.301Z,259.75
2019-02-12T14:37:17.011Z,241.25
2019-02-12T14:39:48.496Z,250.75
2019-02-12T14:42:20.144Z,227.25
2019-02-12T14:44:51.428Z,260.00
2019-02-12T14:47:22.600Z,256.25
2019-02-12T14:49:54.229Z,229.25
2019-02-12T14:52:25.353Z,259.50
2019-02-12T14:54:56.498Z,259.00
2019-02-12T14:57:27.892Z,262.00
2019-02-12T14:59:59.949Z,271.25
2019-02-12T15:02:31.915Z,250.00
2019-02-12T15:05:03.181Z,305.50
2019-02-12T15:07:34.757Z,339.50
2019-02-12T15:10:06.620Z,331.75
2019-02-12T15:12:38.019Z,327.75
2019-02-12T15:15:09.909Z,282.50
2019-02-12T15:17:41.417Z,313.25
2019-02-12T15:20:13.454Z,295.00
2019-02-12T15:22:45.093Z,304.75
2019-02-12T15:25:16.380Z,345.50
2019-02-12T15:27:48.198Z,497.60
2019-02-12T15:30:20.386Z,649.50
2019-02-12T15:32:51.897Z,694.00
2019-02-12T15:35:23.212Z,696.40
2019-02-12T15:37:54.379Z,560.40
2019-02-12T15:40:26.285Z,503.20
2019-02-12T15:42:57.720Z,438.25
2019-02-12T15:45:29.542Z,436.50
2019-02-12T15:48:00.980Z,399.50
2019-02-12T15:50:32.333Z,367.75
2019-02-12T15:53:03.650Z,354.50
2019-02-12T15:55:42.132Z,331.25
2019-02-12T15:58:08.084Z,334.75
2019-02-12T16:00:39.867Z,330.00
2019-02-12T16:03:12.493Z,304.75
2019-02-12T16:05:43.960Z,324.00
2019-02-12T16:08:15.369Z,330.25
2019-02-12T16:10:46.675Z,312.75
2019-02-12T16:13:18.147Z,322.00
2019-02-12T16:15:49.748Z,331.75
2019-02-12T16:18:22.916Z,325.25
2019-02-12T16:20:55.108Z,349.00
2019-02-12T16:23:26.689Z,316.00
2019-02-12T16:25:59.538Z,330.75
2019-02-12T16:28:31.128Z,326.25
2019-02-12T16:31:02.755Z,314.25
2019-02-12T16:33:34.623Z,299.50
2019-02-12T16:36:06.459Z,308.25
2019-02-12T16:38:38.433Z,296.50
2019-02-12T16:41:09.986Z,306.25
2019-02-12T16:43:41.430Z,298.50
2019-02-12T16:46:19.243Z,304.75
2019-02-12T16:48:52.174Z,280.75
2019-02-12T16:51:25.949Z,285.75
2019-02-12T16:54:00.258Z,288.75
2019-02-12T16:56:34.581Z,279.00
2019-02-12T16:59:11.511Z,301.00
2019-02-12T17:01:44.795Z,307.50
2019-02-12T17:04:16.466Z,286.00
2019-02-12T17:06:48.626Z,293.25
2019-02-12T17:09:20.195Z,292.50
2019-02-12T17:11:52.319Z,277.50
2019-02-12T17:14:23.790Z,274.50
2019-02-12T17:16:55.184Z,300.00
2019-02-12T17:19:26.839Z,276.25
2019-02-12T17:21:58.667Z,290.00
2019-02-12T17:24:30.830Z,303.75
2019-02-12T17:27:02.282Z,301.50
2019-02-12T17:29:34.947Z,277.25
2019-02-12T17:32:06.606Z,275.25
2019-02-12T17:34:37.961Z,301.50
2019-02-12T17:37:09.716Z,332.25
2019-02-12T17:39:41.545Z,327.00
2019-02-12T17:42:13.053Z,299.75
2019-02-12T17:44:44.568Z,327.00
2019-02-12T17:47:16.262Z,305.00
2019-02-12T17:49:47.873Z,318.75
2019-02-12T17:52:19.865Z,310.25
2019-02-12T17:54:51.232Z,293.25
2019-02-12T17:57:22.738Z,303.25
2019-02-12T17:59:54.097Z,283.25
2019-02-12T18:02:25.587Z,275.75
2019-02-12T18:04:57.098Z,280.00
2019-02-12T18:07:28.602Z,308.50
2019-02-12T18:10:00.109Z,280.75
2019-02-12T18:12:31.941Z,297.25
2019-02-12T18:15:03.112Z,281.50
2019-02-12T18:17:34.410Z,283.50
2019-02-12T18:20:05.961Z,270.25
2019-02-12T18:22:37.580Z,271.75
2019-02-12T18:25:09.683Z,274.50
2019-02-12T18:27:41.268Z,285.00
2019-02-12T18:30:14.398Z,279.50
2019-02-12T18:32:46.185Z,261.50
2019-02-12T18:35:17.430Z,252.50
2019-02-12T18:37:48.816Z,242.00
2019-02-12T18:40:20.340Z,231.75
2019-02-12T18:42:51.635Z,268.00
2019-02-12T18:45:22.796Z,247.50
2019-02-12T18:47:54.076Z,260.50
2019-02-12T18:50:25.568Z,241.50
2019-02-12T18:52:57.099Z,261.75
2019-02-12T18:55:28.461Z,254.25
2019-02-12T18:57:59.959Z,225.50
2019-02-12T19:00:31.362Z,224.25
2019-02-12T19:03:02.526Z,259.75
2019-02-12T19:05:33.808Z,264.75
2019-02-12T19:08:05.815Z,229.25
2019-02-12T19:10:37.736Z,236.00
2019-02-12T19:13:09.171Z,257.50
2019-02-12T19:15:40.427Z,251.00
2019-02-12T19:18:15.200Z,259.75
2019-02-12T19:20:46.674Z,240.75
2019-02-12T19:23:18.343Z,247.00
2019-02-12T19:25:49.708Z,246.75
2019-02-12T19:28:21.386Z,236.50
2019-02-12T19:30:52.861Z,244.00
2019-02-12T19:33:26.030Z,254.75
2019-02-12T19:35:57.685Z,240.50
2019-02-12T19:38:29.243Z,259.50
2019-02-12T19:41:00.801Z,269.75
2019-02-12T19:43:32.094Z,275.75
2019-02-12T19:46:03.453Z,264.25
2019-02-12T19:48:35.000Z,260.00
2019-02-12T19:51:06.699Z,271.00
2019-02-12T19:53:38.392Z,259.25
2019-02-12T19:56:10.013Z,264.50
2019-02-12T19:58:41.870Z,256.25
2019-02-12T20:01:13.768Z,247.00
2019-02-12T20:03:45.132Z,233.00
2019-02-12T20:06:16.832Z,241.50
2019-02-12T20:08:48.327Z,244.75
2019-02-12T20:11:19.965Z,252.00
2019-02-12T20:13:51.131Z,253.75
2019-02-12T20:16:22.794Z,247.75
2019-02-12T20:18:54.026Z,234.00
2019-02-12T20:21:25.445Z,238.75
2019-02-12T20:23:56.727Z,248.00
2019-02-12T20:26:28.108Z,256.00
2019-02-12T20:28:59.626Z,233.00
2019-02-12T20:31:31.957Z,235.00
2019-02-12T20:34:03.589Z,237.00
2019-02-12T20:36:36.587Z,234.75
2019-02-12T20:39:08.412Z,238.50
2019-02-12T20:41:40.226Z,239.75
2019-02-12T20:44:11.909Z,256.75
2019-02-12T20:46:43.599Z,278.25
2019-02-12T20:49:15.163Z,247.00
2019-02-12T20:51:46.458Z,242.50
2019-02-12T20:54:18.505Z,250.00
2019-02-12T20:56:49.975Z,252.50
2019-02-12T20:59:24.163Z,251.25
2019-02-12T21:01:55.584Z,245.25
2019-02-12T21:04:27.277Z,244.00
2019-02-12T21:06:59.005Z,248.00
2019-02-12T21:09:30.824Z,232.75
2019-02-12T21:12:02.601Z,252.25
2019-02-12T21:14:35.470Z,235.50
2019-02-12T21:17:07.077Z,273.25
2019-02-12T21:19:38.633Z,254.75
2019-02-12T21:22:11.103Z,246.50
2019-02-12T21:24:42.538Z,267.25
2019-02-12T21:27:14.088Z,277.00
2019-02-12T21:29:45.244Z,255.00
2019-02-12T21:32:16.840Z,250.25
2019-02-12T21:34:48.290Z,240.50
2019-02-12T21:37:20.410Z,240.00
2019-02-12T21:39:51.928Z,267.50
2019-02-12T21:42:23.335Z,268.75
2019-02-12T21:44:54.821Z,263.00
2019-02-12T21:47:26.518Z,258.25
2019-02-12T21:49:57.682Z,259.25
2019-02-12T21:52:29.219Z,262.00
2019-02-12T21:55:00.576Z,272.75
2019-02-12T21:57:32.325Z,261.50
2019-02-12T22:00:04.970Z,276.25
2019-02-12T22:02:37.985Z,259.50
2019-02-12T22:05:10.450Z,274.75
2019-02-12T22:07:43.085Z,271.00
2019-02-12T22:10:17.379Z,275.50
2019-02-12T22:12:50.041Z,289.75
2019-02-12T22:15:21.501Z,278.50
2019-02-12T22:17:53.382Z,283.50
2019-02-12T22:20:24.734Z,274.00
2019-02-12T22:22:56.250Z,275.50
2019-02-12T22:25:28.070Z,266.25
2019-02-12T22:27:59.899Z,263.50
2019-02-12T22:30:31.864Z,254.50
2019-02-12T22:33:03.277Z,255.25
2019-02-12T22:35:34.579Z,277.00
2019-02-12T22:38:06.326Z,268.50
2019-02-12T22:40:37.674Z,245.50
2019-02-12T22:43:09.113Z,238.50
2019-02-12T22:45:41.468Z,275.00
2019-02-12T22:48:12.813Z,248.25
2019-02-12T22:50:44.333Z,263.00
2019-02-12T22:53:15.925Z,272.00
2019-02-12T22:55:47.191Z,265.25
2019-02-12T22:58:19.068Z,260.00
2019-02-12T23:01:06.303Z,245.75
2019-02-12T23:03:38.982Z,247.50
2019-02-12T23:06:10.540Z,268.25
2019-02-12T23:08:42.284Z,258.75
2019-02-12T23:11:13.455Z,262.00
2019-02-12T23:13:45.113Z,260.00
2019-02-12T23:16:16.298Z,276.75
2019-02-12T23:18:47.723Z,259.50
2019-02-12T23:21:19.419Z,255.25
2019-02-12T23:23:51.327Z,276.25
2019-02-12T23:26:22.934Z,255.50
2019-02-12T23:28:54.961Z,269.00
2019-02-12T23:31:26.412Z,257.00
2019-02-12T23:33:58.017Z,259.00
2019-02-12T23:36:29.381Z,273.50
2019-02-12T23:39:00.874Z,277.00
2019-02-12T23:41:33.686Z,255.75
2019-02-12T23:44:05.221Z,244.75
2019-02-12T23:46:36.633Z,266.75
2019-02-12T23:49:08.165Z,259.50
2019-02-12T23:51:40.511Z,269.00
2019-02-12T23:54:12.035Z,254.50
2019-02-12T23:56:43.489Z,282.50
2019-02-12T23:59:15.027Z,207.25
